sensor_id;sensor_type;location;lat;lon;timestamp;P1;durP1;ratioP1;P2;durP2;ratioP2
54177;SDS011;40085;53.004;6.770;2022-11-04T00:15:54;4.68;;;3.15;;
54177;SDS011;40085;53.004;6.770;2022-11-04T00:18:38;6.32;;;3.60;;
54177;SDS011;40085;53.004;6.770;2022-11-04T00:21:04;5.78;;;3.50;;
54177;SDS011;40085;53.004;6.770;2022-11-04T00:23:48;5.78;;;2.92;;
54177;SDS011;40085;53.004;6.770;2022-11-04T00:26:33;5.35;;;3.08;;
54177;SDS011;40085;53.004;6.770;2022-11-04T00:29:17;5.43;;;3.13;;
54177;SDS011;40085;53.004;6.770;2022-11-04T00:34:14;3.97;;;2.60;;
54177;SDS011;40085;53.004;6.770;2022-11-04T00:36:40;4.20;;;2.75;;
54177;SDS011;40085;53.004;6.770;2022-11-04T00:39:06;7.28;;;3.38;;
54177;SDS011;40085;53.004;6.770;2022-11-04T00:41:31;6.82;;;3.17;;
54177;SDS011;40085;53.004;6.770;2022-11-04T00:43:59;4.53;;;3.10;;
54177;SDS011;40085;53.004;6.770;2022-11-04T00:46:27;4.65;;;2.60;;
54177;SDS011;40085;53.004;6.770;2022-11-04T00:48:54;3.10;;;1.70;;
54177;SDS011;40085;53.004;6.770;2022-11-04T00:51:20;2.25;;;1.73;;
54177;SDS011;40085;53.004;6.770;2022-11-04T00:53:46;1.73;;;1.45;;
54177;SDS011;40085;53.004;6.770;2022-11-04T00:56:13;1.67;;;1.20;;
54177;SDS011;40085;53.004;6.770;2022-11-04T00:58:38;1.67;;;1.08;;
54177;SDS011;40085;53.004;6.770;2022-11-04T01:01:08;1.70;;;1.05;;
54177;SDS011;40085;53.004;6.770;2022-11-04T01:03:41;1.05;;;0.98;;
54177;SDS011;40085;53.004;6.770;2022-11-04T01:06:08;0.80;;;0.77;;
54177;SDS011;40085;53.004;6.770;2022-11-04T01:08:33;1.30;;;0.80;;
54177;SDS011;40085;53.004;6.770;2022-11-04T01:11:00;1.10;;;0.85;;
54177;SDS011;40085;53.004;6.770;2022-11-04T01:13:27;1.58;;;0.88;;
54177;SDS011;40085;53.004;6.770;2022-11-04T01:15:53;0.80;;;0.63;;
54177;SDS011;40085;53.004;6.770;2022-11-04T01:18:19;1.73;;;0.85;;
54177;SDS011;40085;53.004;6.770;2022-11-04T01:20:44;1.48;;;0.80;;
54177;SDS011;40085;53.004;6.770;2022-11-04T01:23:10;0.75;;;0.60;;
54177;SDS011;40085;53.004;6.770;2022-11-04T01:25:38;0.70;;;0.70;;
54177;SDS011;40085;53.004;6.770;2022-11-04T01:28:05;0.60;;;0.60;;
54177;SDS011;40085;53.004;6.770;2022-11-04T01:30:31;1.80;;;0.70;;
54177;SDS011;40085;53.004;6.770;2022-11-04T01:32:56;1.75;;;0.60;;
54177;SDS011;40085;53.004;6.770;2022-11-04T01:35:22;0.88;;;0.65;;
54177;SDS011;40085;53.004;6.770;2022-11-04T01:37:48;0.95;;;0.47;;
54177;SDS011;40085;53.004;6.770;2022-11-04T01:40:14;0.43;;;0.40;;
54177;SDS011;40085;53.004;6.770;2022-11-04T01:42:39;0.82;;;0.30;;
54177;SDS011;40085;53.004;6.770;2022-11-04T01:45:07;0.30;;;0.30;;
54177;SDS011;40085;53.004;6.770;2022-11-04T01:47:42;0.38;;;0.32;;
54177;SDS011;40085;53.004;6.770;2022-11-04T01:50:14;0.50;;;0.30;;
54177;SDS011;40085;53.004;6.770;2022-11-04T01:52:48;0.35;;;0.35;;
54177;SDS011;40085;53.004;6.770;2022-11-04T01:55:36;0.30;;;0.30;;
54177;SDS011;40085;53.004;6.770;2022-11-04T01:58:08;0.75;;;0.35;;
54177;SDS011;40085;53.004;6.770;2022-11-04T02:00:38;0.28;;;0.25;;
54177;SDS011;40085;53.004;6.770;2022-11-04T02:03:08;1.63;;;0.30;;
54177;SDS011;40085;53.004;6.770;2022-11-04T02:05:39;0.30;;;0.30;;
54177;SDS011;40085;53.004;6.770;2022-11-04T02:08:06;0.63;;;0.30;;
54177;SDS011;40085;53.004;6.770;2022-11-04T02:10:33;0.20;;;0.20;;
54177;SDS011;40085;53.004;6.770;2022-11-04T02:13:02;1.63;;;0.20;;
54177;SDS011;40085;53.004;6.770;2022-11-04T02:23:44;0.30;;;0.30;;
54177;SDS011;40085;53.004;6.770;2022-11-04T02:26:27;0.30;;;0.30;;
54177;SDS011;40085;53.004;6.770;2022-11-04T02:32:17;0.25;;;0.25;;
54177;SDS011;40085;53.004;6.770;2022-11-04T02:45:37;0.20;;;0.20;;
54177;SDS011;40085;53.004;6.770;2022-11-04T02:51:27;0.20;;;0.20;;
54177;SDS011;40085;53.004;6.770;2022-11-04T02:56:50;0.20;;;0.20;;
54177;SDS011;40085;53.004;6.770;2022-11-04T02:59:34;0.17;;;0.17;;
54177;SDS011;40085;53.004;6.770;2022-11-04T03:02:11;0.20;;;0.20;;
54177;SDS011;40085;53.004;6.770;2022-11-04T03:04:43;0.20;;;0.20;;
54177;SDS011;40085;53.004;6.770;2022-11-04T03:07:14;0.52;;;0.25;;
54177;SDS011;40085;53.004;6.770;2022-11-04T03:09:43;0.10;;;0.10;;
54177;SDS011;40085;53.004;6.770;2022-11-04T03:12:13;0.28;;;0.20;;
54177;SDS011;40085;53.004;6.770;2022-11-04T03:14:44;0.32;;;0.20;;
54177;SDS011;40085;53.004;6.770;2022-11-04T03:17:19;0.15;;;0.10;;
54177;SDS011;40085;53.004;6.770;2022-11-04T03:20:06;0.20;;;0.20;;
54177;SDS011;40085;53.004;6.770;2022-11-04T03:22:36;0.35;;;0.30;;
54177;SDS011;40085;53.004;6.770;2022-11-04T03:25:03;0.20;;;0.20;;
54177;SDS011;40085;53.004;6.770;2022-11-04T03:30:17;0.30;;;0.30;;
54177;SDS011;40085;53.004;6.770;2022-11-04T03:35:30;0.88;;;0.30;;
54177;SDS011;40085;53.004;6.770;2022-11-04T03:37:57;0.10;;;0.10;;
54177;SDS011;40085;53.004;6.770;2022-11-04T03:40:23;0.32;;;0.22;;
54177;SDS011;40085;53.004;6.770;2022-11-04T03:42:54;0.20;;;0.20;;
54177;SDS011;40085;53.004;6.770;2022-11-04T03:45:37;0.20;;;0.20;;
54177;SDS011;40085;53.004;6.770;2022-11-04T03:48:04;0.25;;;0.25;;
54177;SDS011;40085;53.004;6.770;2022-11-04T03:50:32;0.93;;;0.52;;
54177;SDS011;40085;53.004;6.770;2022-11-04T03:53:03;1.08;;;0.40;;
54177;SDS011;40085;53.004;6.770;2022-11-04T03:55:41;0.40;;;0.28;;
54177;SDS011;40085;53.004;6.770;2022-11-04T04:04:04;0.80;;;0.60;;
54177;SDS011;40085;53.004;6.770;2022-11-04T04:06:39;1.02;;;0.35;;
54177;SDS011;40085;53.004;6.770;2022-11-04T04:09:13;0.95;;;0.50;;
54177;SDS011;40085;53.004;6.770;2022-11-04T04:17:23;0.20;;;0.20;;
54177;SDS011;40085;53.004;6.770;2022-11-04T04:19:58;1.73;;;0.35;;
54177;SDS011;40085;53.004;6.770;2022-11-04T04:22:32;0.10;;;0.10;;
54177;SDS011;40085;53.004;6.770;2022-11-04T04:25:03;0.30;;;0.30;;
54177;SDS011;40085;53.004;6.770;2022-11-04T04:27:50;0.60;;;0.20;;
54177;SDS011;40085;53.004;6.770;2022-11-04T04:30:17;0.13;;;0.10;;
54177;SDS011;40085;53.004;6.770;2022-11-04T04:32:50;0.50;;;0.30;;
54177;SDS011;40085;53.004;6.770;2022-11-04T04:35:26;1.50;;;0.35;;
54177;SDS011;40085;53.004;6.770;2022-11-04T04:38:07;0.80;;;0.30;;
54177;SDS011;40085;53.004;6.770;2022-11-04T04:41:11;0.35;;;0.32;;
54177;SDS011;40085;53.004;6.770;2022-11-04T04:44:02;0.17;;;0.17;;
54177;SDS011;40085;53.004;6.770;2022-11-04T04:46:48;0.20;;;0.20;;
54177;SDS011;40085;53.004;6.770;2022-11-04T04:49:18;0.15;;;0.15;;
54177;SDS011;40085;53.004;6.770;2022-11-04T04:51:44;1.88;;;0.20;;
54177;SDS011;40085;53.004;6.770;2022-11-04T04:54:12;0.20;;;0.20;;
54177;SDS011;40085;53.004;6.770;2022-11-04T04:56:38;0.13;;;0.13;;
54177;SDS011;40085;53.004;6.770;2022-11-04T04:59:04;0.10;;;0.10;;
54177;SDS011;40085;53.004;6.770;2022-11-04T05:01:30;0.50;;;0.15;;
54177;SDS011;40085;53.004;6.770;2022-11-04T05:03:56;0.10;;;0.10;;
54177;SDS011;40085;53.004;6.770;2022-11-04T05:06:21;4.00;;;0.32;;
54177;SDS011;40085;53.004;6.770;2022-11-04T05:08:47;0.22;;;0.20;;
54177;SDS011;40085;53.004;6.770;2022-11-04T05:11:13;1.10;;;0.20;;
54177;SDS011;40085;53.004;6.770;2022-11-04T05:13:38;0.15;;;0.15;;
54177;SDS011;40085;53.004;6.770;2022-11-04T05:16:06;0.20;;;0.20;;
54177;SDS011;40085;53.004;6.770;2022-11-04T05:18:35;3.70;;;0.80;;
54177;SDS011;40085;53.004;6.770;2022-11-04T05:21:07;0.28;;;0.20;;
54177;SDS011;40085;53.004;6.770;2022-11-04T05:23:36;0.30;;;0.30;;
54177;SDS011;40085;53.004;6.770;2022-11-04T05:26:02;0.25;;;0.25;;
54177;SDS011;40085;53.004;6.770;2022-11-04T05:28:28;0.15;;;0.15;;
54177;SDS011;40085;53.004;6.770;2022-11-04T05:30:54;0.65;;;0.15;;
54177;SDS011;40085;53.004;6.770;2022-11-04T05:33:20;0.95;;;0.30;;
54177;SDS011;40085;53.004;6.770;2022-11-04T05:35:46;0.20;;;0.20;;
54177;SDS011;40085;53.004;6.770;2022-11-04T05:38:12;0.20;;;0.20;;
54177;SDS011;40085;53.004;6.770;2022-11-04T05:40:37;0.10;;;0.10;;
54177;SDS011;40085;53.004;6.770;2022-11-04T05:43:04;0.10;;;0.10;;
54177;SDS011;40085;53.004;6.770;2022-11-04T05:45:30;0.38;;;0.17;;
54177;SDS011;40085;53.004;6.770;2022-11-04T05:48:02;0.35;;;0.20;;
54177;SDS011;40085;53.004;6.770;2022-11-04T05:50:30;0.20;;;0.20;;
54177;SDS011;40085;53.004;6.770;2022-11-04T05:52:57;0.43;;;0.30;;
54177;SDS011;40085;53.004;6.770;2022-11-04T05:55:24;1.45;;;0.35;;
54177;SDS011;40085;53.004;6.770;2022-11-04T05:57:50;0.28;;;0.20;;
54177;SDS011;40085;53.004;6.770;2022-11-04T06:00:16;0.50;;;0.38;;
54177;SDS011;40085;53.004;6.770;2022-11-04T06:02:42;0.38;;;0.20;;
54177;SDS011;40085;53.004;6.770;2022-11-04T06:05:08;0.28;;;0.20;;
54177;SDS011;40085;53.004;6.770;2022-11-04T06:07:33;0.20;;;0.20;;
54177;SDS011;40085;53.004;6.770;2022-11-04T06:09:59;0.30;;;0.30;;
54177;SDS011;40085;53.004;6.770;2022-11-04T06:12:25;0.77;;;0.40;;
54177;SDS011;40085;53.004;6.770;2022-11-04T06:14:50;0.17;;;0.17;;
54177;SDS011;40085;53.004;6.770;2022-11-04T06:17:17;0.20;;;0.20;;
54177;SDS011;40085;53.004;6.770;2022-11-04T06:19:45;0.15;;;0.15;;
54177;SDS011;40085;53.004;6.770;2022-11-04T06:22:11;0.30;;;0.30;;
54177;SDS011;40085;53.004;6.770;2022-11-04T06:24:38;0.80;;;0.30;;
54177;SDS011;40085;53.004;6.770;2022-11-04T06:27:05;0.22;;;0.20;;
54177;SDS011;40085;53.004;6.770;2022-11-04T06:29:30;0.30;;;0.30;;
54177;SDS011;40085;53.004;6.770;2022-11-04T06:31:56;0.20;;;0.20;;
54177;SDS011;40085;53.004;6.770;2022-11-04T06:34:22;0.40;;;0.40;;
54177;SDS011;40085;53.004;6.770;2022-11-04T06:36:48;0.47;;;0.30;;
54177;SDS011;40085;53.004;6.770;2022-11-04T06:39:14;0.60;;;0.30;;
54177;SDS011;40085;53.004;6.770;2022-11-04T06:41:40;0.20;;;0.20;;
54177;SDS011;40085;53.004;6.770;2022-11-04T06:44:06;0.43;;;0.30;;
54177;SDS011;40085;53.004;6.770;2022-11-04T06:49:02;0.43;;;0.30;;
54177;SDS011;40085;53.004;6.770;2022-11-04T06:51:29;1.88;;;0.30;;
54177;SDS011;40085;53.004;6.770;2022-11-04T06:53:55;2.13;;;0.30;;
54177;SDS011;40085;53.004;6.770;2022-11-04T06:56:21;0.35;;;0.22;;
54177;SDS011;40085;53.004;6.770;2022-11-04T06:58:47;0.40;;;0.30;;
54177;SDS011;40085;53.004;6.770;2022-11-04T07:01:17;0.32;;;0.30;;
54177;SDS011;40085;53.004;6.770;2022-11-04T07:03:47;0.55;;;0.30;;
54177;SDS011;40085;53.004;6.770;2022-11-04T07:06:17;0.98;;;0.40;;
54177;SDS011;40085;53.004;6.770;2022-11-04T07:08:44;0.55;;;0.40;;
54177;SDS011;40085;53.004;6.770;2022-11-04T07:11:10;0.38;;;0.25;;
54177;SDS011;40085;53.004;6.770;2022-11-04T07:13:36;0.43;;;0.40;;
54177;SDS011;40085;53.004;6.770;2022-11-04T07:16:08;0.88;;;0.30;;
54177;SDS011;40085;53.004;6.770;2022-11-04T07:18:34;0.85;;;0.57;;
54177;SDS011;40085;53.004;6.770;2022-11-04T07:21:00;0.30;;;0.30;;
54177;SDS011;40085;53.004;6.770;2022-11-04T07:23:26;0.35;;;0.20;;
54177;SDS011;40085;53.004;6.770;2022-11-04T07:25:52;1.75;;;0.57;;
54177;SDS011;40085;53.004;6.770;2022-11-04T07:28:18;0.30;;;0.30;;
54177;SDS011;40085;53.004;6.770;2022-11-04T07:30:45;0.35;;;0.20;;
54177;SDS011;40085;53.004;6.770;2022-11-04T07:33:10;1.38;;;0.40;;
54177;SDS011;40085;53.004;6.770;2022-11-04T07:35:36;0.32;;;0.22;;
54177;SDS011;40085;53.004;6.770;2022-11-04T07:38:03;0.22;;;0.22;;
54177;SDS011;40085;53.004;6.770;2022-11-04T07:40:29;0.35;;;0.32;;
54177;SDS011;40085;53.004;6.770;2022-11-04T07:42:58;0.40;;;0.20;;
54177;SDS011;40085;53.004;6.770;2022-11-04T07:45:25;0.45;;;0.35;;
54177;SDS011;40085;53.004;6.770;2022-11-04T07:47:50;4.25;;;0.30;;
54177;SDS011;40085;53.004;6.770;2022-11-04T07:50:16;1.23;;;0.40;;
54177;SDS011;40085;53.004;6.770;2022-11-04T07:52:42;0.45;;;0.40;;
54177;SDS011;40085;53.004;6.770;2022-11-04T07:55:07;0.30;;;0.30;;
54177;SDS011;40085;53.004;6.770;2022-11-04T07:57:34;4.97;;;0.40;;
54177;SDS011;40085;53.004;6.770;2022-11-04T08:00:00;0.40;;;0.30;;
54177;SDS011;40085;53.004;6.770;2022-11-04T08:02:26;0.43;;;0.38;;
54177;SDS011;40085;53.004;6.770;2022-11-04T08:04:52;0.40;;;0.40;;
54177;SDS011;40085;53.004;6.770;2022-11-04T08:07:17;0.60;;;0.50;;
54177;SDS011;40085;53.004;6.770;2022-11-04T08:09:43;0.47;;;0.30;;
54177;SDS011;40085;53.004;6.770;2022-11-04T08:12:09;0.43;;;0.43;;
54177;SDS011;40085;53.004;6.770;2022-11-04T08:14:35;0.40;;;0.35;;
54177;SDS011;40085;53.004;6.770;2022-11-04T08:17:00;2.03;;;0.40;;
54177;SDS011;40085;53.004;6.770;2022-11-04T08:19:26;3.10;;;0.40;;
54177;SDS011;40085;53.004;6.770;2022-11-04T08:21:52;2.15;;;0.40;;
54177;SDS011;40085;53.004;6.770;2022-11-04T08:24:17;1.75;;;0.50;;
54177;SDS011;40085;53.004;6.770;2022-11-04T08:26:43;0.30;;;0.30;;
54177;SDS011;40085;53.004;6.770;2022-11-04T08:29:10;0.73;;;0.52;;
54177;SDS011;40085;53.004;6.770;2022-11-04T08:31:36;0.50;;;0.40;;
54177;SDS011;40085;53.004;6.770;2022-11-04T08:34:02;1.45;;;0.52;;
54177;SDS011;40085;53.004;6.770;2022-11-04T08:36:34;0.40;;;0.40;;
54177;SDS011;40085;53.004;6.770;2022-11-04T08:39:02;0.40;;;0.40;;
54177;SDS011;40085;53.004;6.770;2022-11-04T08:41:29;0.52;;;0.45;;
54177;SDS011;40085;53.004;6.770;2022-11-04T08:43:57;1.05;;;0.40;;
54177;SDS011;40085;53.004;6.770;2022-11-04T08:46:28;0.73;;;0.47;;
54177;SDS011;40085;53.004;6.770;2022-11-04T08:49:00;0.40;;;0.40;;
54177;SDS011;40085;53.004;6.770;2022-11-04T08:51:26;1.27;;;0.43;;
54177;SDS011;40085;53.004;6.770;2022-11-04T08:53:52;0.40;;;0.35;;
54177;SDS011;40085;53.004;6.770;2022-11-04T08:56:25;1.02;;;0.45;;
54177;SDS011;40085;53.004;6.770;2022-11-04T08:58:53;0.20;;;0.20;;
54177;SDS011;40085;53.004;6.770;2022-11-04T09:01:20;0.68;;;0.40;;
54177;SDS011;40085;53.004;6.770;2022-11-04T09:03:46;0.30;;;0.30;;
54177;SDS011;40085;53.004;6.770;2022-11-04T09:06:14;1.33;;;0.38;;
54177;SDS011;40085;53.004;6.770;2022-11-04T09:08:46;0.32;;;0.22;;
54177;SDS011;40085;53.004;6.770;2022-11-04T09:11:12;1.00;;;0.28;;
54177;SDS011;40085;53.004;6.770;2022-11-04T09:13:40;0.68;;;0.38;;
54177;SDS011;40085;53.004;6.770;2022-11-04T09:16:07;3.53;;;0.50;;
54177;SDS011;40085;53.004;6.770;2022-11-04T09:18:34;1.70;;;1.17;;
54177;SDS011;40085;53.004;6.770;2022-11-04T09:21:00;0.30;;;0.30;;
54177;SDS011;40085;53.004;6.770;2022-11-04T09:23:26;0.35;;;0.30;;
54177;SDS011;40085;53.004;6.770;2022-11-04T09:25:52;0.30;;;0.30;;
54177;SDS011;40085;53.004;6.770;2022-11-04T09:28:21;0.40;;;0.40;;
54177;SDS011;40085;53.004;6.770;2022-11-04T09:30:47;1.55;;;0.32;;
54177;SDS011;40085;53.004;6.770;2022-11-04T09:33:12;1.50;;;0.70;;
54177;SDS011;40085;53.004;6.770;2022-11-04T09:35:38;0.55;;;0.40;;
54177;SDS011;40085;53.004;6.770;2022-11-04T09:38:04;1.10;;;0.52;;
54177;SDS011;40085;53.004;6.770;2022-11-04T09:40:31;0.73;;;0.40;;
54177;SDS011;40085;53.004;6.770;2022-11-04T09:45:41;4.28;;;0.75;;
54177;SDS011;40085;53.004;6.770;2022-11-04T09:48:24;0.50;;;0.50;;
54177;SDS011;40085;53.004;6.770;2022-11-04T09:50:58;0.57;;;0.50;;
54177;SDS011;40085;53.004;6.770;2022-11-04T09:56:07;0.88;;;0.50;;
54177;SDS011;40085;53.004;6.770;2022-11-04T09:58:39;1.40;;;0.57;;
54177;SDS011;40085;53.004;6.770;2022-11-04T10:06:29;1.55;;;0.68;;
54177;SDS011;40085;53.004;6.770;2022-11-04T10:09:20;2.50;;;0.50;;
54177;SDS011;40085;53.004;6.770;2022-11-04T10:12:18;0.60;;;0.40;;
54177;SDS011;40085;53.004;6.770;2022-11-04T10:20:54;1.00;;;0.70;;
54177;SDS011;40085;53.004;6.770;2022-11-04T10:26:09;1.10;;;0.70;;
54177;SDS011;40085;53.004;6.770;2022-11-04T10:28:44;4.38;;;0.80;;
54177;SDS011;40085;53.004;6.770;2022-11-04T10:31:17;2.45;;;0.80;;
54177;SDS011;40085;53.004;6.770;2022-11-04T10:33:44;1.30;;;0.77;;
54177;SDS011;40085;53.004;6.770;2022-11-04T10:36:16;2.13;;;1.25;;
54177;SDS011;40085;53.004;6.770;2022-11-04T10:38:46;2.08;;;1.33;;
54177;SDS011;40085;53.004;6.770;2022-11-04T10:41:34;3.05;;;1.77;;
54177;SDS011;40085;53.004;6.770;2022-11-04T10:44:07;3.45;;;1.45;;
54177;SDS011;40085;53.004;6.770;2022-11-04T10:52:04;2.88;;;1.27;;
54177;SDS011;40085;53.004;6.770;2022-11-04T10:54:35;4.68;;;1.27;;
54177;SDS011;40085;53.004;6.770;2022-11-04T10:57:04;1.90;;;1.25;;
54177;SDS011;40085;53.004;6.770;2022-11-04T10:59:37;4.20;;;1.38;;
54177;SDS011;40085;53.004;6.770;2022-11-04T11:02:06;1.65;;;1.02;;
54177;SDS011;40085;53.004;6.770;2022-11-04T11:04:34;2.55;;;1.58;;
54177;SDS011;40085;53.004;6.770;2022-11-04T11:07:02;1.85;;;1.10;;
54177;SDS011;40085;53.004;6.770;2022-11-04T11:09:34;2.28;;;1.35;;
54177;SDS011;40085;53.004;6.770;2022-11-04T11:14:37;5.05;;;1.17;;
54177;SDS011;40085;53.004;6.770;2022-11-04T11:19:57;3.20;;;1.60;;
54177;SDS011;40085;53.004;6.770;2022-11-04T11:22:41;3.40;;;1.58;;
54177;SDS011;40085;53.004;6.770;2022-11-04T11:27:48;3.08;;;1.27;;
54177;SDS011;40085;53.004;6.770;2022-11-04T11:30:19;3.58;;;1.50;;
54177;SDS011;40085;53.004;6.770;2022-11-04T11:32:46;2.65;;;1.30;;
54177;SDS011;40085;53.004;6.770;2022-11-04T11:35:54;1.33;;;0.80;;
54177;SDS011;40085;53.004;6.770;2022-11-04T11:38:21;4.07;;;1.20;;
54177;SDS011;40085;53.004;6.770;2022-11-04T11:40:50;2.17;;;1.10;;
54177;SDS011;40085;53.004;6.770;2022-11-04T11:43:20;1.60;;;1.05;;
54177;SDS011;40085;53.004;6.770;2022-11-04T11:45:49;1.30;;;0.68;;
54177;SDS011;40085;53.004;6.770;2022-11-04T11:48:49;2.95;;;1.10;;
54177;SDS011;40085;53.004;6.770;2022-11-04T11:51:12;1.83;;;0.70;;
54177;SDS011;40085;53.004;6.770;2022-11-04T11:53:38;2.37;;;1.00;;
54177;SDS011;40085;53.004;6.770;2022-11-04T11:56:26;1.50;;;1.02;;
54177;SDS011;40085;53.004;6.770;2022-11-04T11:59:00;1.33;;;0.77;;
54177;SDS011;40085;53.004;6.770;2022-11-04T12:01:35;1.73;;;0.82;;
54177;SDS011;40085;53.004;6.770;2022-11-04T12:04:15;5.75;;;1.25;;
54177;SDS011;40085;53.004;6.770;2022-11-04T12:23:18;0.50;;;0.28;;
54177;SDS011;40085;53.004;6.770;2022-11-04T12:34:46;1.45;;;0.30;;
54177;SDS011;40085;53.004;6.770;2022-11-04T12:42:59;2.63;;;0.35;;
54177;SDS011;40085;53.004;6.770;2022-11-04T12:54:32;1.88;;;0.50;;
54177;SDS011;40085;53.004;6.770;2022-11-04T12:56:41;3.03;;;0.50;;
54177;SDS011;40085;53.004;6.770;2022-11-04T13:02:09;2.38;;;0.47;;
54177;SDS011;40085;53.004;6.770;2022-11-04T13:04:51;1.33;;;0.50;;
54177;SDS011;40085;53.004;6.770;2022-11-04T13:07:24;2.40;;;0.30;;
54177;SDS011;40085;53.004;6.770;2022-11-04T13:10:04;0.95;;;0.50;;
54177;SDS011;40085;53.004;6.770;2022-11-04T13:12:39;0.20;;;0.20;;
54177;SDS011;40085;53.004;6.770;2022-11-04T13:15:13;0.43;;;0.30;;
54177;SDS011;40085;53.004;6.770;2022-11-04T13:17:48;0.22;;;0.22;;
54177;SDS011;40085;53.004;6.770;2022-11-04T13:22:57;1.98;;;0.50;;
54177;SDS011;40085;53.004;6.770;2022-11-04T13:25:29;1.38;;;0.40;;
54177;SDS011;40085;53.004;6.770;2022-11-04T13:28:03;0.47;;;0.40;;
54177;SDS011;40085;53.004;6.770;2022-11-04T13:30:58;2.33;;;0.50;;
54177;SDS011;40085;53.004;6.770;2022-11-04T13:34:08;0.22;;;0.22;;
54177;SDS011;40085;53.004;6.770;2022-11-04T13:42:08;0.73;;;0.32;;
54177;SDS011;40085;53.004;6.770;2022-11-04T13:44:49;0.20;;;0.20;;
54177;SDS011;40085;53.004;6.770;2022-11-04T13:47:25;2.08;;;0.40;;
54177;SDS011;40085;53.004;6.770;2022-11-04T13:49:57;2.80;;;0.50;;
54177;SDS011;40085;53.004;6.770;2022-11-04T13:52:24;1.08;;;0.47;;
54177;SDS011;40085;53.004;6.770;2022-11-04T13:54:55;0.98;;;0.40;;
54177;SDS011;40085;53.004;6.770;2022-11-04T13:57:24;1.27;;;0.50;;
54177;SDS011;40085;53.004;6.770;2022-11-04T14:13:39;0.40;;;0.40;;
54177;SDS011;40085;53.004;6.770;2022-11-04T14:18:49;2.78;;;0.30;;
54177;SDS011;40085;53.004;6.770;2022-11-04T14:21:26;7.90;;;0.63;;
54177;SDS011;40085;53.004;6.770;2022-11-04T14:23:57;3.67;;;0.40;;
54177;SDS011;40085;53.004;6.770;2022-11-04T14:26:27;2.35;;;0.50;;
54177;SDS011;40085;53.004;6.770;2022-11-04T14:29:05;0.40;;;0.40;;
54177;SDS011;40085;53.004;6.770;2022-11-04T14:31:40;0.73;;;0.52;;
54177;SDS011;40085;53.004;6.770;2022-11-04T14:36:48;0.38;;;0.30;;
54177;SDS011;40085;53.004;6.770;2022-11-04T14:39:21;0.68;;;0.30;;
54177;SDS011;40085;53.004;6.770;2022-11-04T14:41:55;0.57;;;0.50;;
54177;SDS011;40085;53.004;6.770;2022-11-04T14:49:44;2.30;;;0.43;;
54177;SDS011;40085;53.004;6.770;2022-11-04T14:52:26;0.45;;;0.35;;
54177;SDS011;40085;53.004;6.770;2022-11-04T14:54:57;2.25;;;0.70;;
54177;SDS011;40085;53.004;6.770;2022-11-04T14:57:50;2.35;;;0.77;;
54177;SDS011;40085;53.004;6.770;2022-11-04T15:05:52;0.65;;;0.43;;
54177;SDS011;40085;53.004;6.770;2022-11-04T15:08:36;0.68;;;0.68;;
54177;SDS011;40085;53.004;6.770;2022-11-04T15:13:43;1.48;;;0.50;;
54177;SDS011;40085;53.004;6.770;2022-11-04T15:16:19;1.08;;;0.50;;
54177;SDS011;40085;53.004;6.770;2022-11-04T15:18:48;0.32;;;0.32;;
54177;SDS011;40085;53.004;6.770;2022-11-04T15:21:15;0.60;;;0.40;;
54177;SDS011;40085;53.004;6.770;2022-11-04T15:23:45;2.53;;;0.40;;
54177;SDS011;40085;53.004;6.770;2022-11-04T15:26:17;1.35;;;0.47;;
54177;SDS011;40085;53.004;6.770;2022-11-04T15:28:52;1.63;;;0.63;;
54177;SDS011;40085;53.004;6.770;2022-11-04T15:31:21;0.47;;;0.32;;
54177;SDS011;40085;53.004;6.770;2022-11-04T15:33:53;1.40;;;0.80;;
54177;SDS011;40085;53.004;6.770;2022-11-04T15:36:31;0.95;;;0.57;;
54177;SDS011;40085;53.004;6.770;2022-11-04T15:41:36;5.80;;;0.65;;
54177;SDS011;40085;53.004;6.770;2022-11-04T15:44:25;0.90;;;0.60;;
54177;SDS011;40085;53.004;6.770;2022-11-04T15:47:00;0.80;;;0.60;;
54177;SDS011;40085;53.004;6.770;2022-11-04T15:49:48;1.25;;;0.60;;
54177;SDS011;40085;53.004;6.770;2022-11-04T15:52:25;2.00;;;0.80;;
54177;SDS011;40085;53.004;6.770;2022-11-04T15:54:55;4.03;;;0.73;;
54177;SDS011;40085;53.004;6.770;2022-11-04T15:57:23;1.08;;;0.63;;
54177;SDS011;40085;53.004;6.770;2022-11-04T15:59:57;1.98;;;0.73;;
54177;SDS011;40085;53.004;6.770;2022-11-04T16:02:34;1.30;;;0.80;;
54177;SDS011;40085;53.004;6.770;2022-11-04T16:07:39;2.63;;;1.08;;
54177;SDS011;40085;53.004;6.770;2022-11-04T16:12:48;2.53;;;1.52;;
54177;SDS011;40085;53.004;6.770;2022-11-04T16:18:21;3.88;;;1.08;;
54177;SDS011;40085;53.004;6.770;2022-11-04T16:20:50;9.93;;;1.38;;
54177;SDS011;40085;53.004;6.770;2022-11-04T16:23:19;1.38;;;0.80;;
54177;SDS011;40085;53.004;6.770;2022-11-04T16:28:27;3.50;;;1.00;;
54177;SDS011;40085;53.004;6.770;2022-11-04T16:30:55;1.90;;;1.40;;
54177;SDS011;40085;53.004;6.770;2022-11-04T16:33:25;4.22;;;1.35;;
54177;SDS011;40085;53.004;6.770;2022-11-04T16:35:51;4.18;;;0.93;;
54177;SDS011;40085;53.004;6.770;2022-11-04T16:38:18;2.15;;;1.20;;
54177;SDS011;40085;53.004;6.770;2022-11-04T16:40:45;2.47;;;1.42;;
54177;SDS011;40085;53.004;6.770;2022-11-04T16:43:13;2.72;;;1.20;;
54177;SDS011;40085;53.004;6.770;2022-11-04T16:45:46;2.33;;;1.10;;
54177;SDS011;40085;53.004;6.770;2022-11-04T16:48:15;1.88;;;0.80;;
54177;SDS011;40085;53.004;6.770;2022-11-04T16:50:43;1.23;;;0.80;;
54177;SDS011;40085;53.004;6.770;2022-11-04T16:53:10;2.47;;;0.98;;
54177;SDS011;40085;53.004;6.770;2022-11-04T16:55:40;1.08;;;0.70;;
54177;SDS011;40085;53.004;6.770;2022-11-04T16:58:09;3.28;;;0.90;;
54177;SDS011;40085;53.004;6.770;2022-11-04T17:00:41;3.25;;;0.82;;
54177;SDS011;40085;53.004;6.770;2022-11-04T17:03:17;3.10;;;0.85;;
54177;SDS011;40085;53.004;6.770;2022-11-04T17:05:50;1.73;;;0.90;;
54177;SDS011;40085;53.004;6.770;2022-11-04T17:08:19;0.80;;;0.65;;
54177;SDS011;40085;53.004;6.770;2022-11-04T17:10:45;2.63;;;1.20;;
54177;SDS011;40085;53.004;6.770;2022-11-04T17:13:11;2.10;;;0.93;;
54177;SDS011;40085;53.004;6.770;2022-11-04T17:15:37;3.65;;;1.05;;
54177;SDS011;40085;53.004;6.770;2022-11-04T17:18:03;2.25;;;0.88;;
54177;SDS011;40085;53.004;6.770;2022-11-04T17:20:29;2.50;;;0.98;;
54177;SDS011;40085;53.004;6.770;2022-11-04T17:22:56;1.15;;;0.88;;
54177;SDS011;40085;53.004;6.770;2022-11-04T17:25:24;2.97;;;1.00;;
54177;SDS011;40085;53.004;6.770;2022-11-04T17:27:51;1.23;;;1.00;;
54177;SDS011;40085;53.004;6.770;2022-11-04T17:30:18;1.65;;;0.98;;
54177;SDS011;40085;53.004;6.770;2022-11-04T17:32:46;0.93;;;0.80;;
54177;SDS011;40085;53.004;6.770;2022-11-04T17:35:13;3.35;;;1.10;;
54177;SDS011;40085;53.004;6.770;2022-11-04T17:37:40;3.28;;;1.08;;
54177;SDS011;40085;53.004;6.770;2022-11-04T17:40:07;1.58;;;0.80;;
54177;SDS011;40085;53.004;6.770;2022-11-04T17:42:36;5.97;;;0.90;;
54177;SDS011;40085;53.004;6.770;2022-11-04T17:45:21;1.13;;;0.95;;
54177;SDS011;40085;53.004;6.770;2022-11-04T17:47:46;6.57;;;1.13;;
54177;SDS011;40085;53.004;6.770;2022-11-04T17:50:12;2.25;;;1.10;;
54177;SDS011;40085;53.004;6.770;2022-11-04T17:52:38;2.80;;;0.98;;
54177;SDS011;40085;53.004;6.770;2022-11-04T17:55:06;1.00;;;0.57;;
54177;SDS011;40085;53.004;6.770;2022-11-04T17:57:33;3.05;;;1.08;;
54177;SDS011;40085;53.004;6.770;2022-11-04T17:59:59;2.00;;;0.73;;
54177;SDS011;40085;53.004;6.770;2022-11-04T18:02:27;4.72;;;1.00;;
54177;SDS011;40085;53.004;6.770;2022-11-04T18:04:53;2.33;;;0.95;;
54177;SDS011;40085;53.004;6.770;2022-11-04T18:07:18;4.43;;;0.88;;
54177;SDS011;40085;53.004;6.770;2022-11-04T18:09:44;3.00;;;1.23;;
54177;SDS011;40085;53.004;6.770;2022-11-04T18:12:10;1.58;;;0.65;;
54177;SDS011;40085;53.004;6.770;2022-11-04T18:14:55;5.63;;;0.95;;
54177;SDS011;40085;53.004;6.770;2022-11-04T18:17:21;3.70;;;0.93;;
54177;SDS011;40085;53.004;6.770;2022-11-04T18:19:49;2.20;;;0.77;;
54177;SDS011;40085;53.004;6.770;2022-11-04T18:22:15;4.18;;;0.93;;